• pl
  • eng

Awiacja
NEWS
last updated: 12.09.2019 14:49<\/div>
Dear users,
We would like to inform you that from September 2nd a test form of the GAFOR forecast is available on our webpage. Please send your comments and suggestions to gafor@imgw.pl that will contribute to product development.
Military airports TAF 00:30 20.01.2020

TAF EPCE 192300Z 2000/2009 26008KT 9999 BKN013=

TAF EPDA 192300Z 2000/2009 25008KT 9999 BKN015 TEMPO 2000/2006 SCT015
PROB30 TEMPO 2000/2006 5000 BR BKN010=

TAF EPDE 192300Z 2000/2009 32003KT 0500 FZFG BKN004=

TAF EPDE 120500Z 24006KT 9999 BKN020 OVC070 BECMG 1208/1210 24010KT
SCT025 BKN070=

TAF EPKS 192300Z 2000/2009 28004KT 9999 BKN015
TEMPO 2002/2008 5000 BR BKN007
PROB30 2003/2006 3000 BR=

TAF EPLK 192300Z 2000/2009 30005KT 2000 BR BKN020
PROB30 2000/2007 VRB02KT 0600 FG BKN004=

TAF EPLY 192300Z 2000/2009 30004KT 7000 BKN025 TEMPO 2000/2006 3000
BR BKN006 OVC012=

TAF EPMB 192300Z 2000/2009 27008KT 9999 OVC015 PROB30 2005/2009 5000
BR BKN005 OVC012=

TAF EPMI 192300Z 2000/2009 27006KT 9999 BKN015
PROB30 TEMPO 2003/2009 5000 BR BKN007=

TAF EPMM 192300Z 2000/2009 35004KT 2000 BR BKN020 BECMG 2001/2004
27003KT 0500 FZFG OVC003=

TAF EPOK 192300Z 2000/2009 29010KT 9999 SCT015=

TAF EPPW 192300Z 2000/2009 28004KT 7000 BKN017 BECMG 2001/2003 5000
BR PROB30 2002/2008 3000 BR SCT007 BKN012=

TAF EPSN 192300Z 2000/2009 26006KT 7000 BKN013
BECMG 2001/2003 5000 BR BKN005
TEMPO 2003/2009 2500 BR BKN003=
Awiacja.imgw.pl jest pogodowym serwisem informacyjnym
Instytutu Meteorologii i Gospodarki Wodnej Państwowego Instytutu Badawczego.
Copyright IMGW PIB 2009-2019© Wszelkie prawa zastrzeżone.